Time;durP1;ratioP1;P1;durP2;ratioP2;P2;SDS_P1;SDS_P2;PMS_P1;PMS_P2;Temp;Humidity;BMP_temperature;BMP_pressure;BME280_temperature;BME280_humidity;BME280_pressure;Samples;Min_cycle;Max_cycle;Signal;HPM_P1;HPM_P2
2021/10/29 00:02:15;;;;;;;4.95;3.13;;;;;;;;;;5114510;27;20061;-59
2021/10/29 00:04:41;;;;;;;4.50;3.17;;;;;;;;;;5115186;28;20027;-59
2021/10/29 00:07:09;;;;;;;5.53;3.30;;;;;;;;;;5113291;28;20032;-59
2021/10/29 00:09:35;;;;;;;4.00;2.80;;;;;;;;;;5114728;28;20030;-59
2021/10/29 00:12:01;;;;;;;5.63;3.28;;;;;;;;;;5129890;27;20086;-59
2021/10/29 00:14:31;;;;;;;3.80;2.95;;;;;;;;;;5133998;27;20023;-59
2021/10/29 00:16:57;;;;;;;4.25;2.83;;;;;;;;;;5133763;27;20072;-59
2021/10/29 00:19:23;;;;;;;4.90;3.47;;;;;;;;;;5134219;27;20087;-59
2021/10/29 00:21:49;;;;;;;4.38;2.95;;;;;;;;;;5119357;27;20024;-59
2021/10/29 00:24:15;;;;;;;4.00;2.90;;;;;;;;;;5113211;28;20019;-59
2021/10/29 00:26:42;;;;;;;5.10;3.40;;;;;;;;;;5114644;28;20020;-59
2021/10/29 00:29:08;;;;;;;4.65;2.80;;;;;;;;;;5113585;28;20023;-59
2021/10/29 00:31:34;;;;;;;5.18;2.90;;;;;;;;;;5116813;27;20023;-59
2021/10/29 00:34:00;;;;;;;5.90;2.72;;;;;;;;;;5113302;28;20030;-59
2021/10/29 00:36:26;;;;;;;6.28;2.72;;;;;;;;;;5115824;27;20047;-59
2021/10/29 00:38:52;;;;;;;3.60;2.67;;;;;;;;;;5134163;27;20031;-59
2021/10/29 00:41:18;;;;;;;3.80;2.50;;;;;;;;;;5131749;27;20479;-59
2021/10/29 00:43:45;;;;;;;4.25;3.40;;;;;;;;;;5114054;27;20027;-59
2021/10/29 00:46:11;;;;;;;3.78;2.78;;;;;;;;;;5113236;27;20068;-59
2021/10/29 00:48:37;;;;;;;5.85;3.20;;;;;;;;;;5113325;28;20414;-59
2021/10/29 00:51:03;;;;;;;4.85;3.30;;;;;;;;;;5120816;27;20371;-59
2021/10/29 00:53:30;;;;;;;4.28;2.85;;;;;;;;;;5131589;27;20023;-59
2021/10/29 00:55:56;;;;;;;3.78;3.17;;;;;;;;;;5130545;27;20099;-59
2021/10/29 00:58:22;;;;;;;3.80;2.83;;;;;;;;;;5112929;28;20028;-59
2021/10/29 01:00:48;;;;;;;4.20;3.22;;;;;;;;;;5114843;27;20364;-59
2021/10/29 01:03:14;;;;;;;5.47;3.70;;;;;;;;;;5128530;27;20023;-58
2021/10/29 01:05:40;;;;;;;4.07;2.95;;;;;;;;;;5113856;28;20023;-58
2021/10/29 01:08:07;;;;;;;4.38;2.45;;;;;;;;;;5122375;27;20345;-59
2021/10/29 01:10:34;;;;;;;4.82;2.95;;;;;;;;;;5123593;27;20016;-58
2021/10/29 01:13:00;;;;;;;3.70;2.83;;;;;;;;;;5113301;28;20016;-59
2021/10/29 01:15:26;;;;;;;3.85;2.50;;;;;;;;;;5113988;27;20456;-59
2021/10/29 01:17:52;;;;;;;3.40;2.65;;;;;;;;;;5113097;28;20028;-58
2021/10/29 01:20:19;;;;;;;4.30;3.15;;;;;;;;;;5115000;27;20486;-59
2021/10/29 01:22:45;;;;;;;3.90;2.83;;;;;;;;;;5131854;27;20067;-58
2021/10/29 01:25:12;;;;;;;2.95;2.33;;;;;;;;;;5132214;27;20023;-59
2021/10/29 01:27:39;;;;;;;5.05;3.10;;;;;;;;;;5115924;27;20045;-59
2021/10/29 01:30:05;;;;;;;3.83;2.92;;;;;;;;;;5132886;27;20110;-59
2021/10/29 01:32:31;;;;;;;4.45;3.10;;;;;;;;;;5122071;27;20015;-59
2021/10/29 01:34:58;;;;;;;6.07;3.17;;;;;;;;;;5112397;28;20026;-58
2021/10/29 01:37:24;;;;;;;4.22;3.08;;;;;;;;;;5122984;27;20515;-59
2021/10/29 01:39:50;;;;;;;4.03;2.58;;;;;;;;;;5132740;27;20487;-59
2021/10/29 01:42:16;;;;;;;4.25;2.78;;;;;;;;;;5123787;27;20027;-59
2021/10/29 01:44:42;;;;;;;3.28;2.67;;;;;;;;;;5112797;27;20432;-59
2021/10/29 01:47:08;;;;;;;4.38;3.00;;;;;;;;;;5111875;28;20030;-59
2021/10/29 01:49:35;;;;;;;5.13;3.60;;;;;;;;;;5112584;28;20499;-59
2021/10/29 01:52:01;;;;;;;3.53;2.80;;;;;;;;;;5124808;27;20030;-59
2021/10/29 01:54:27;;;;;;;4.30;2.85;;;;;;;;;;5119138;27;20015;-59
2021/10/29 01:56:54;;;;;;;4.28;2.50;;;;;;;;;;5133044;27;20466;-59
2021/10/29 01:59:20;;;;;;;3.55;2.75;;;;;;;;;;5122941;27;20063;-59
2021/10/29 02:01:46;;;;;;;3.95;2.28;;;;;;;;;;5110580;28;20047;-59
2021/10/29 02:04:12;;;;;;;4.95;2.85;;;;;;;;;;5114969;27;20068;-59
2021/10/29 02:06:38;;;;;;;5.20;2.72;;;;;;;;;;5103484;27;20019;-59
2021/10/29 02:09:04;;;;;;;4.82;2.60;;;;;;;;;;5132481;27;20019;-59
2021/10/29 02:11:30;;;;;;;4.38;2.58;;;;;;;;;;5132211;27;20074;-58
2021/10/29 02:13:56;;;;;;;4.53;3.28;;;;;;;;;;5115781;27;20016;-59
2021/10/29 02:16:22;;;;;;;3.78;2.85;;;;;;;;;;5130779;28;20019;-59
2021/10/29 02:18:48;;;;;;;3.58;2.67;;;;;;;;;;5119443;28;20478;-59
2021/10/29 02:21:14;;;;;;;6.75;3.10;;;;;;;;;;5117339;28;20349;-59
2021/10/29 02:23:40;;;;;;;3.78;2.70;;;;;;;;;;5111955;28;20023;-59
2021/10/29 02:26:06;;;;;;;3.95;2.63;;;;;;;;;;5115764;28;20019;-59
2021/10/29 02:28:32;;;;;;;3.45;2.63;;;;;;;;;;5132050;28;20162;-59
2021/10/29 02:30:58;;;;;;;3.38;2.50;;;;;;;;;;5132305;28;20463;-59
2021/10/29 02:33:24;;;;;;;3.42;2.60;;;;;;;;;;5126307;28;20023;-59
2021/10/29 02:35:50;;;;;;;3.47;2.70;;;;;;;;;;5131031;28;20047;-59
2021/10/29 02:38:17;;;;;;;3.58;2.53;;;;;;;;;;5110473;27;20110;-59
2021/10/29 02:40:43;;;;;;;3.60;2.55;;;;;;;;;;5136478;27;20019;-59
2021/10/29 02:43:09;;;;;;;4.18;2.75;;;;;;;;;;5134386;27;20027;-59
2021/10/29 02:45:36;;;;;;;3.53;2.47;;;;;;;;;;5136065;27;20015;-59
2021/10/29 02:48:02;;;;;;;3.70;2.83;;;;;;;;;;5135442;27;20364;-59
2021/10/29 02:50:28;;;;;;;5.32;3.13;;;;;;;;;;5121699;27;20031;-59
2021/10/29 02:52:54;;;;;;;5.15;2.85;;;;;;;;;;5130405;27;20527;-59
2021/10/29 02:55:20;;;;;;;3.80;2.67;;;;;;;;;;5115353;28;20479;-59
2021/10/29 02:57:46;;;;;;;3.53;2.80;;;;;;;;;;5130660;27;20023;-59
2021/10/29 03:00:15;;;;;;;2.75;2.28;;;;;;;;;;5132565;27;20034;-59
2021/10/29 03:02:42;;;;;;;3.55;2.67;;;;;;;;;;5117337;27;20039;-59
2021/10/29 03:05:08;;;;;;;3.20;2.42;;;;;;;;;;5114654;28;20024;-59
2021/10/29 03:07:34;;;;;;;3.88;3.03;;;;;;;;;;5102180;27;20031;-59
2021/10/29 03:10:00;;;;;;;3.92;2.88;;;;;;;;;;5136441;27;20031;-59
2021/10/29 03:12:27;;;;;;;3.80;2.97;;;;;;;;;;5135191;27;20542;-59
2021/10/29 03:14:53;;;;;;;4.32;3.25;;;;;;;;;;5134586;27;20023;-59
2021/10/29 03:17:19;;;;;;;7.72;3.47;;;;;;;;;;5112303;28;20468;-59
2021/10/29 03:19:45;;;;;;;3.33;2.60;;;;;;;;;;5115257;28;20452;-59
2021/10/29 03:22:11;;;;;;;3.10;2.63;;;;;;;;;;5131192;27;20359;-59
2021/10/29 03:24:37;;;;;;;4.15;2.50;;;;;;;;;;5115656;28;20026;-59
2021/10/29 03:27:03;;;;;;;4.05;2.63;;;;;;;;;;5115409;28;20027;-59
2021/10/29 03:29:30;;;;;;;4.38;2.75;;;;;;;;;;5128110;27;20015;-59
2021/10/29 03:31:56;;;;;;;3.45;2.50;;;;;;;;;;5135549;27;20023;-59
2021/10/29 03:34:22;;;;;;;3.47;2.55;;;;;;;;;;5135278;27;20054;-59
2021/10/29 03:36:48;;;;;;;3.80;2.75;;;;;;;;;;5127073;27;20129;-59
2021/10/29 03:39:20;;;;;;;3.33;2.45;;;;;;;;;;5132972;27;20063;-58
2021/10/29 03:41:57;;;;;;;3.97;2.65;;;;;;;;;;5133231;27;20015;-59
2021/10/29 03:44:40;;;;;;;3.28;2.40;;;;;;;;;;5135172;27;20019;-59
2021/10/29 03:47:09;;;;;;;4.07;2.67;;;;;;;;;;5115791;27;20098;-59
2021/10/29 03:49:41;;;;;;;3.22;2.30;;;;;;;;;;5115028;28;20020;-59
2021/10/29 03:52:30;;;;;;;;;;;;;;;;;;5129212;27;20015;-59
2021/10/29 03:54:58;;;;;;;4.13;2.80;;;;;;;;;;5135390;27;20372;-59
2021/10/29 03:57:26;;;;;;;3.08;2.72;;;;;;;;;;5099014;28;20031;-58
2021/10/29 03:59:53;;;;;;;4.22;2.42;;;;;;;;;;5115326;28;20414;-59
2021/10/29 04:02:19;;;;;;;3.97;2.40;;;;;;;;;;5117878;27;20024;-59
2021/10/29 04:04:45;;;;;;;3.60;2.47;;;;;;;;;;5133883;27;20447;-59
2021/10/29 04:07:12;;;;;;;3.03;2.42;;;;;;;;;;5114083;27;20049;-59
2021/10/29 04:09:38;;;;;;;3.10;2.40;;;;;;;;;;5135347;27;20026;-59
2021/10/29 04:12:04;;;;;;;4.53;2.78;;;;;;;;;;5134628;27;20412;-59
2021/10/29 04:14:30;;;;;;;3.13;2.60;;;;;;;;;;5120423;27;20120;-59
2021/10/29 04:16:56;;;;;;;2.80;2.53;;;;;;;;;;5130224;27;20094;-59
2021/10/29 04:19:23;;;;;;;3.42;2.35;;;;;;;;;;5133584;27;20031;-59
2021/10/29 04:21:49;;;;;;;2.92;2.50;;;;;;;;;;5132358;27;20043;-59
2021/10/29 04:24:15;;;;;;;3.22;2.72;;;;;;;;;;5134603;27;20019;-59
2021/10/29 04:26:41;;;;;;;4.38;2.72;;;;;;;;;;5134525;27;20015;-58
2021/10/29 04:29:16;;;;;;;3.10;2.47;;;;;;;;;;5133696;27;20019;-59
2021/10/29 04:31:49;;;;;;;4.85;2.35;;;;;;;;;;5114361;28;20019;-59
2021/10/29 04:34:23;;;;;;;3.72;2.90;;;;;;;;;;5114201;27;20015;-59
2021/10/29 04:36:49;;;;;;;3.40;2.28;;;;;;;;;;5131593;27;20043;-59
2021/10/29 04:39:16;;;;;;;3.55;2.45;;;;;;;;;;5133869;27;20023;-59
2021/10/29 04:41:44;;;;;;;3.97;2.58;;;;;;;;;;5134164;27;20027;-59
2021/10/29 04:44:10;;;;;;;3.13;2.45;;;;;;;;;;5124358;27;20027;-59
2021/10/29 04:46:37;;;;;;;4.15;2.47;;;;;;;;;;5122451;27;20023;-59
2021/10/29 04:49:03;;;;;;;3.85;2.53;;;;;;;;;;5121436;27;20023;-59
2021/10/29 04:51:30;;;;;;;4.60;2.97;;;;;;;;;;5120375;27;20257;-58
2021/10/29 04:53:57;;;;;;;4.38;2.70;;;;;;;;;;5119771;27;20054;-59
2021/10/29 04:56:23;;;;;;;4.25;2.53;;;;;;;;;;5104107;27;20467;-59
2021/10/29 04:58:49;;;;;;;5.03;2.65;;;;;;;;;;5121887;27;20069;-59
2021/10/29 05:01:15;;;;;;;2.45;2.25;;;;;;;;;;5118759;27;20019;-59
2021/10/29 05:03:41;;;;;;;6.65;3.17;;;;;;;;;;5116061;27;20103;-59
2021/10/29 05:06:11;;;;;;;4.53;2.47;;;;;;;;;;5117114;27;20020;-58
2021/10/29 05:08:38;;;;;;;3.80;2.95;;;;;;;;;;5124919;27;20490;-59
2021/10/29 05:11:07;;;;;;;2.67;2.47;;;;;;;;;;5126541;27;20064;-59
2021/10/29 05:13:33;;;;;;;2.83;2.25;;;;;;;;;;5132412;27;20023;-59
2021/10/29 05:15:59;;;;;;;5.85;2.88;;;;;;;;;;5115339;27;20015;-59
2021/10/29 05:18:26;;;;;;;3.03;2.13;;;;;;;;;;5114149;27;20023;-59
2021/10/29 05:20:52;;;;;;;4.25;2.30;;;;;;;;;;5123815;27;20049;-59
2021/10/29 05:23:18;;;;;;;4.90;2.67;;;;;;;;;;5113487;27;20084;-59
2021/10/29 05:25:44;;;;;;;2.83;2.20;;;;;;;;;;5112939;28;20436;-58
2021/10/29 05:28:10;;;;;;;5.93;2.88;;;;;;;;;;5112530;28;20107;-59
2021/10/29 05:30:37;;;;;;;5.28;2.65;;;;;;;;;;5132202;27;20161;-59
2021/10/29 05:33:03;;;;;;;5.05;3.08;;;;;;;;;;5133522;27;20019;-58
2021/10/29 05:35:29;;;;;;;4.25;2.45;;;;;;;;;;5130693;27;20054;-59
2021/10/29 05:37:56;;;;;;;4.07;2.55;;;;;;;;;;5121802;27;20031;-59
2021/10/29 05:40:22;;;;;;;4.07;2.58;;;;;;;;;;5121915;27;20027;-59
2021/10/29 05:42:49;;;;;;;5.05;2.47;;;;;;;;;;5126563;27;20412;-59
2021/10/29 05:45:15;;;;;;;3.83;2.00;;;;;;;;;;5131226;27;20042;-59
2021/10/29 05:47:42;;;;;;;3.92;2.08;;;;;;;;;;5112945;28;20073;-59
2021/10/29 05:50:12;;;;;;;3.95;2.17;;;;;;;;;;5114108;27;20027;-59
2021/10/29 05:52:44;;;;;;;6.78;2.78;;;;;;;;;;5114633;27;20390;-58
2021/10/29 05:55:20;;;;;;;;;;;;;;;;;;5133013;27;20015;-52
2021/10/29 05:57:50;;;;;;;6.80;2.33;;;;;;;;;;5120133;27;19904;-50
2021/10/29 06:00:17;;;;;;;4.30;2.67;;;;;;;;;;5126773;27;20030;-50
2021/10/29 06:02:44;;;;;;;8.25;2.38;;;;;;;;;;5132717;27;20098;-48
2021/10/29 06:05:11;;;;;;;3.67;2.22;;;;;;;;;;5132844;27;20018;-54
2021/10/29 06:07:37;;;;;;;10.73;2.45;;;;;;;;;;5129139;27;20029;-49
2021/10/29 06:10:08;;;;;;;6.55;2.30;;;;;;;;;;5112433;28;20083;-51
2021/10/29 06:12:40;;;;;;;6.72;2.65;;;;;;;;;;5114927;27;20106;-48
2021/10/29 06:15:07;;;;;;;9.02;2.78;;;;;;;;;;5111489;27;20023;-52
2021/10/29 06:17:33;;;;;;;8.93;2.50;;;;;;;;;;5130941;28;20048;-49
2021/10/29 06:20:00;;;;;;;4.38;2.63;;;;;;;;;;5129673;28;20521;-49
2021/10/29 06:22:33;;;;;;;5.82;2.42;;;;;;;;;;5111337;28;20051;-49
2021/10/29 06:25:07;;;;;;;5.90;3.08;;;;;;;;;;5112827;28;20016;-49
2021/10/29 06:29:59;;;;;;;5.93;2.25;;;;;;;;;;5112407;28;20027;-49
2021/10/29 06:32:25;;;;;;;4.40;2.80;;;;;;;;;;5111998;28;20494;-49
2021/10/29 06:34:51;;;;;;;6.80;2.28;;;;;;;;;;5132420;28;20023;-51
2021/10/29 06:37:18;;;;;;;9.75;3.05;;;;;;;;;;5127347;28;20030;-48
2021/10/29 06:39:46;;;;;;;9.10;2.63;;;;;;;;;;5132452;28;20039;-49
2021/10/29 06:42:30;;;;;;;3.97;2.22;;;;;;;;;;5121142;28;20499;-54
2021/10/29 07:01:03;;;;;;;2.55;1.73;;;;;;;;;;5111743;28;20050;-50
2021/10/29 07:42:03;;;;;;;2.25;1.95;;;;;;;;;;5127424;27;20031;-51
2021/10/29 07:44:31;;;;;;;3.80;2.58;;;;;;;;;;5117098;27;20380;-51
2021/10/29 07:46:57;;;;;;;3.80;2.30;;;;;;;;;;5128545;27;20020;-50
2021/10/29 07:49:28;;;;;;;5.63;1.90;;;;;;;;;;5116063;27;20523;-58
2021/10/29 07:51:54;;;;;;;3.03;2.03;;;;;;;;;;5134550;27;20047;-50
2021/10/29 07:54:20;;;;;;;3.40;1.92;;;;;;;;;;5134495;27;20019;-49
2021/10/29 07:56:46;;;;;;;3.08;2.00;;;;;;;;;;5135323;27;20045;-46
2021/10/29 07:59:13;;;;;;;3.45;1.85;;;;;;;;;;5117169;27;20375;-47
2021/10/29 08:01:39;;;;;;;4.65;2.58;;;;;;;;;;5134123;27;20456;-46
2021/10/29 08:04:05;;;;;;;7.30;2.83;;;;;;;;;;5134644;27;20027;-46
2021/10/29 08:06:32;;;;;;;2.30;1.80;;;;;;;;;;5129370;27;20071;-47
2021/10/29 08:09:00;;;;;;;3.58;2.20;;;;;;;;;;5133047;27;20019;-47
2021/10/29 08:11:27;;;;;;;3.67;2.25;;;;;;;;;;5123112;27;20020;-47
2021/10/29 08:13:53;;;;;;;6.03;2.50;;;;;;;;;;5114033;27;20541;-46
2021/10/29 08:16:19;;;;;;;2.78;1.95;;;;;;;;;;5117610;27;20029;-51
2021/10/29 08:18:47;;;;;;;3.85;2.28;;;;;;;;;;5126099;27;20026;-46
2021/10/29 08:21:14;;;;;;;10.88;2.78;;;;;;;;;;5132053;27;20027;-47
2021/10/29 08:23:41;;;;;;;4.47;2.30;;;;;;;;;;5134395;27;20519;-46
2021/10/29 08:26:07;;;;;;;2.92;1.92;;;;;;;;;;5134018;27;20030;-47
2021/10/29 08:28:34;;;;;;;3.10;1.98;;;;;;;;;;5121566;27;20019;-47
2021/10/29 08:31:01;;;;;;;2.97;2.08;;;;;;;;;;5123379;27;20094;-49
2021/10/29 08:33:28;;;;;;;3.08;2.25;;;;;;;;;;5130521;27;20093;-46
2021/10/29 08:35:54;;;;;;;2.75;1.80;;;;;;;;;;5114665;27;20112;-47
2021/10/29 08:38:22;;;;;;;2.17;1.80;;;;;;;;;;5133736;27;20045;-47
2021/10/29 08:40:48;;;;;;;3.97;2.20;;;;;;;;;;5134391;27;20055;-47
2021/10/29 08:43:14;;;;;;;2.88;2.10;;;;;;;;;;5116865;27;20024;-46
2021/10/29 08:45:41;;;;;;;3.53;2.28;;;;;;;;;;5113430;27;20088;-47
2021/10/29 08:48:07;;;;;;;3.97;2.25;;;;;;;;;;5113811;27;20405;-48
2021/10/29 08:50:33;;;;;;;2.92;2.10;;;;;;;;;;5117678;27;20063;-47
2021/10/29 08:53:00;;;;;;;2.75;1.77;;;;;;;;;;5109079;27;20092;-48
2021/10/29 08:55:27;;;;;;;3.10;2.45;;;;;;;;;;5115422;27;20515;-48
2021/10/29 08:57:54;;;;;;;4.05;1.83;;;;;;;;;;5113883;27;20024;-47
2021/10/29 09:00:23;;;;;;;3.25;2.33;;;;;;;;;;5117955;27;20018;-47
2021/10/29 09:06:01;;;;;;;4.10;2.17;;;;;;;;;;5068269;28;20037;-47
2021/10/29 09:08:44;;;;;;;2.67;1.98;;;;;;;;;;5069103;28;20021;-48
2021/10/29 09:11:32;;;;;;;3.85;2.40;;;;;;;;;;5070268;28;20156;-47
2021/10/29 09:17:04;;;;;;;4.13;2.00;;;;;;;;;;5051578;28;20090;-48
2021/10/29 09:31:23;;;;;;;3.22;2.65;;;;;;;;;;5050109;28;20055;-47
2021/10/29 09:33:50;;;;;;;2.90;1.90;;;;;;;;;;5050096;28;20029;-47
2021/10/29 09:36:32;;;;;;;6.18;2.40;;;;;;;;;;5049375;28;20394;-47
2021/10/29 09:39:06;;;;;;;4.67;2.10;;;;;;;;;;5060582;28;20056;-47
2021/10/29 09:41:32;;;;;;;2.85;2.45;;;;;;;;;;5069922;27;20025;-48
2021/10/29 09:44:00;;;;;;;3.33;2.28;;;;;;;;;;5111925;27;20095;-47
2021/10/29 09:46:41;;;;;;;3.35;2.25;;;;;;;;;;5105669;27;20454;-47
2021/10/29 09:49:12;;;;;;;3.78;1.70;;;;;;;;;;5110822;28;20107;-47
2021/10/29 09:51:50;;;;;;;4.17;2.30;;;;;;;;;;5111996;27;20024;-49
2021/10/29 09:54:31;;;;;;;4.47;2.70;;;;;;;;;;5125090;27;20015;-49
2021/10/29 09:56:57;;;;;;;3.83;2.20;;;;;;;;;;5132715;27;20094;-48
2021/10/29 09:59:24;;;;;;;3.15;1.73;;;;;;;;;;5132201;27;20034;-48
2021/10/29 10:01:52;;;;;;;2.90;2.03;;;;;;;;;;5117585;27;20068;-49
2021/10/29 10:04:22;;;;;;;3.00;2.00;;;;;;;;;;5132841;27;20075;-49
2021/10/29 10:06:49;;;;;;;3.47;1.98;;;;;;;;;;5113123;27;20529;-49
2021/10/29 10:09:16;;;;;;;3.08;2.30;;;;;;;;;;5117581;27;20063;-49
2021/10/29 10:11:43;;;;;;;3.50;2.17;;;;;;;;;;5131680;27;20027;-47
2021/10/29 10:14:10;;;;;;;3.53;2.42;;;;;;;;;;5121982;27;20373;-51
2021/10/29 10:16:41;;;;;;;2.75;2.35;;;;;;;;;;5113903;28;20020;-54
2021/10/29 10:19:08;;;;;;;2.88;2.35;;;;;;;;;;5122711;27;20011;-58
2021/10/29 10:21:40;;;;;;;3.85;2.25;;;;;;;;;;5117753;27;20067;-57
2021/10/29 10:24:19;;;;;;;3.85;2.15;;;;;;;;;;5112352;28;20061;-49
2021/10/29 10:27:23;;;;;;;3.75;2.15;;;;;;;;;;5111457;28;20115;-58
2021/10/29 10:45:35;;;;;;;3.55;2.67;;;;;;;;;;5111293;28;20031;-56
2021/10/29 10:48:03;;;;;;;3.70;2.55;;;;;;;;;;5108223;28;20027;-53
2021/10/29 10:50:35;;;;;;;3.63;2.22;;;;;;;;;;5111239;28;20418;-54
2021/10/29 10:53:07;;;;;;;5.15;2.38;;;;;;;;;;5113153;28;20012;-58
2021/10/29 10:55:35;;;;;;;;;;;;;;;;;;5111628;28;20023;-57
2021/10/29 10:58:21;;;;;;;5.88;2.10;;;;;;;;;;5112984;28;19899;-55
2021/10/29 11:00:55;;;;;;;3.28;2.33;;;;;;;;;;5116282;27;20030;-58
2021/10/29 11:03:46;;;;;;;4.05;2.05;;;;;;;;;;5119326;27;20023;-57
2021/10/29 11:06:39;;;;;;;2.78;2.28;;;;;;;;;;5136093;27;20367;-57
2021/10/29 11:11:56;;;;;;;4.68;2.50;;;;;;;;;;5134513;27;20030;-55
2021/10/29 11:14:34;;;;;;;3.90;2.67;;;;;;;;;;5132041;27;20076;-57
2021/10/29 11:17:01;;;;;;;2.88;2.05;;;;;;;;;;5115499;28;20019;-56
2021/10/29 11:19:35;;;;;;;4.22;2.20;;;;;;;;;;5126077;27;20019;-56
2021/10/29 11:22:01;;;;;;;2.67;1.73;;;;;;;;;;5130795;27;20031;-56
2021/10/29 11:24:36;;;;;;;2.67;2.08;;;;;;;;;;5134651;27;20094;-56
2021/10/29 11:27:21;;;;;;;5.28;1.95;;;;;;;;;;5135877;27;20480;-56
2021/10/29 11:29:51;;;;;;;3.60;2.03;;;;;;;;;;5133653;27;20075;-56
2021/10/29 11:32:18;;;;;;;4.25;2.38;;;;;;;;;;5115120;28;20027;-56
2021/10/29 11:34:45;;;;;;;5.03;2.40;;;;;;;;;;5114024;27;20028;-55
2021/10/29 11:37:11;;;;;;;8.18;2.63;;;;;;;;;;5115126;28;20062;-56
2021/10/29 11:39:38;;;;;;;4.88;2.60;;;;;;;;;;5114158;27;20022;-56
2021/10/29 11:42:05;;;;;;;4.57;2.42;;;;;;;;;;5114706;28;20153;-56
2021/10/29 11:44:31;;;;;;;4.45;2.55;;;;;;;;;;5114480;28;20091;-56
2021/10/29 11:46:57;;;;;;;4.38;2.38;;;;;;;;;;5113400;27;20047;-57
2021/10/29 11:49:28;;;;;;;7.65;2.88;;;;;;;;;;5113359;28;20026;-56
2021/10/29 11:51:55;;;;;;;5.00;2.50;;;;;;;;;;5114836;28;20108;-56
2021/10/29 11:54:34;;;;;;;4.10;2.53;;;;;;;;;;5114315;28;20364;-56
2021/10/29 12:07:30;;;;;;;6.00;2.40;;;;;;;;;;5113403;28;20046;-57
2021/10/29 12:10:05;;;;;;;3.50;2.50;;;;;;;;;;5118877;27;20461;-49
2021/10/29 12:12:32;;;;;;;4.18;2.20;;;;;;;;;;5124697;27;20141;-54
2021/10/29 12:15:08;;;;;;;7.30;4.78;;;;;;;;;;5114370;27;20104;-51
2021/10/29 12:17:41;;;;;;;5.88;4.75;;;;;;;;;;5113016;28;20360;-53
2021/10/29 12:20:10;;;;;;;7.30;4.47;;;;;;;;;;5114161;28;20102;-56
2021/10/29 12:22:42;;;;;;;7.18;4.43;;;;;;;;;;5113118;28;20031;-52
2021/10/29 12:27:55;;;;;;;9.57;3.97;;;;;;;;;;5133920;27;20130;-56
2021/10/29 13:03:11;;;;;;;6.95;2.88;;;;;;;;;;5133140;27;20050;-59
2021/10/29 13:05:38;;;;;;;7.75;2.78;;;;;;;;;;5121152;27;20026;-59
2021/10/29 13:08:17;;;;;;;7.22;2.58;;;;;;;;;;5114728;27;20472;-59
2021/10/29 13:10:44;;;;;;;5.97;2.67;;;;;;;;;;5114235;28;20035;-59
2021/10/29 13:13:34;;;;;;;5.50;2.65;;;;;;;;;;5131325;27;20026;-59
2021/10/29 13:16:02;;;;;;;7.03;2.70;;;;;;;;;;5126878;27;20031;-61
2021/10/29 13:26:45;;;;;;;5.53;3.25;;;;;;;;;;5121959;27;20023;-59
2021/10/29 13:35:06;;;;;;;7.30;2.88;;;;;;;;;;5112327;28;20050;-60
2021/10/29 13:51:19;;;;;;;7.22;3.00;;;;;;;;;;5114345;27;20031;-61
2021/10/29 14:01:42;;;;;;;5.43;3.38;;;;;;;;;;5112152;28;20027;-61
2021/10/29 14:29:09;;;;;;;7.00;4.18;;;;;;;;;;5111724;28;20034;-60
2021/10/29 14:31:57;;;;;;;7.15;3.20;;;;;;;;;;5112531;28;20015;-60
2021/10/29 14:34:36;;;;;;;6.82;3.45;;;;;;;;;;5116098;28;20023;-60
2021/10/29 14:37:15;;;;;;;7.60;4.60;;;;;;;;;;5131452;27;20049;-60
2021/10/29 14:44:48;;;;;;;6.80;3.63;;;;;;;;;;5115788;28;20058;-60
2021/10/29 14:47:24;;;;;;;6.57;3.78;;;;;;;;;;5132486;27;20023;-60
2021/10/29 15:00:39;;;;;;;7.35;3.78;;;;;;;;;;5121945;27;20068;-60
2021/10/29 15:03:37;;;;;;;8.45;4.05;;;;;;;;;;5137038;27;20012;-59
2021/10/29 15:17:49;;;;;;;6.35;3.45;;;;;;;;;;5107747;28;20062;-60
2021/10/29 15:49:02;;;;;;;4.07;2.95;;;;;;;;;;5135534;27;20031;-60
2021/10/29 15:51:35;;;;;;;5.32;4.10;;;;;;;;;;5135578;27;20015;-60
2021/10/29 15:54:08;;;;;;;8.55;4.32;;;;;;;;;;5125041;27;20030;-59
2021/10/29 15:59:31;;;;;;;6.28;3.88;;;;;;;;;;5135110;27;20023;-60
2021/10/29 16:18:10;;;;;;;5.47;3.65;;;;;;;;;;5116844;27;20396;-61
2021/10/29 16:20:36;;;;;;;6.70;3.97;;;;;;;;;;5129769;27;20011;-61
2021/10/29 16:23:03;;;;;;;5.88;3.50;;;;;;;;;;5113669;28;20065;-60
2021/10/29 16:25:37;;;;;;;6.57;4.07;;;;;;;;;;5113802;28;20008;-62
2021/10/29 16:28:05;;;;;;;7.13;3.47;;;;;;;;;;5129728;27;20027;-62
2021/10/29 16:30:34;;;;;;;9.13;3.80;;;;;;;;;;5131165;27;20027;-62
2021/10/29 16:35:38;;;;;;;7.50;3.15;;;;;;;;;;5134548;27;20082;-60
2021/10/29 16:38:08;;;;;;;5.63;3.47;;;;;;;;;;5134432;27;20368;-63
2021/10/29 16:40:35;;;;;;;5.95;2.92;;;;;;;;;;5133648;27;20030;-55
2021/10/29 16:43:02;;;;;;;3.75;3.05;;;;;;;;;;5119761;27;20049;-59
2021/10/29 16:45:28;;;;;;;5.47;2.65;;;;;;;;;;5114003;28;20020;-58
2021/10/29 16:47:54;;;;;;;6.90;2.60;;;;;;;;;;5126988;27;20088;-60
2021/10/29 16:50:21;;;;;;;4.07;2.97;;;;;;;;;;5113659;28;20103;-55
2021/10/29 16:52:48;;;;;;;5.28;2.65;;;;;;;;;;5112915;28;20023;-54
2021/10/29 16:55:15;;;;;;;5.93;3.38;;;;;;;;;;5113206;28;20020;-57
2021/10/29 16:57:41;;;;;;;5.03;2.83;;;;;;;;;;5109875;27;20035;-57
2021/10/29 17:00:08;;;;;;;4.40;2.70;;;;;;;;;;5134423;27;20015;-61
2021/10/29 17:02:35;;;;;;;3.78;2.65;;;;;;;;;;5133397;27;20023;-63
2021/10/29 17:05:01;;;;;;;4.57;2.72;;;;;;;;;;5114148;28;20019;-62
2021/10/29 17:07:27;;;;;;;6.20;2.35;;;;;;;;;;5127501;27;20441;-63
2021/10/29 17:09:53;;;;;;;10.32;3.78;;;;;;;;;;5128317;27;20016;-62
2021/10/29 17:12:21;;;;;;;3.30;2.50;;;;;;;;;;5113250;28;20035;-63
2021/10/29 17:14:48;;;;;;;5.22;2.60;;;;;;;;;;5094232;28;20482;-63
2021/10/29 17:17:14;;;;;;;5.70;3.40;;;;;;;;;;5125139;27;20447;-62
2021/10/29 17:19:41;;;;;;;6.53;3.42;;;;;;;;;;5114480;27;20050;-62
2021/10/29 17:22:07;;;;;;;8.63;3.25;;;;;;;;;;5121429;27;20448;-62
2021/10/29 17:24:39;;;;;;;10.93;3.97;;;;;;;;;;5132258;27;20527;-66
2021/10/29 17:27:05;;;;;;;8.93;3.97;;;;;;;;;;5122721;27;20055;-61
2021/10/29 17:29:33;;;;;;;10.60;5.03;;;;;;;;;;5112977;28;20023;-62
2021/10/29 17:32:00;;;;;;;11.98;5.25;;;;;;;;;;5112533;28;20112;-62
2021/10/29 17:34:26;;;;;;;19.20;6.10;;;;;;;;;;5115144;27;20046;-63
2021/10/29 17:36:52;;;;;;;14.13;8.10;;;;;;;;;;5124129;27;20645;-64
2021/10/29 17:39:20;;;;;;;14.55;7.95;;;;;;;;;;5113087;28;20020;-62
2021/10/29 17:41:47;;;;;;;11.77;7.15;;;;;;;;;;5112322;28;20070;-60
2021/10/29 17:44:15;;;;;;;11.90;6.32;;;;;;;;;;5113074;28;20030;-63
2021/10/29 17:46:41;;;;;;;12.20;6.70;;;;;;;;;;5117890;27;20045;-62
2021/10/29 17:49:09;;;;;;;11.30;5.95;;;;;;;;;;5133535;27;20027;-65
2021/10/29 17:51:37;;;;;;;11.98;5.60;;;;;;;;;;5132877;27;20106;-62
2021/10/29 17:54:04;;;;;;;13.00;5.30;;;;;;;;;;5133496;27;20068;-65
2021/10/29 17:56:30;;;;;;;12.02;6.53;;;;;;;;;;5114356;27;20015;-61
2021/10/29 17:58:56;;;;;;;10.00;5.70;;;;;;;;;;5103047;27;20016;-62
2021/10/29 18:01:23;;;;;;;10.93;5.45;;;;;;;;;;5113343;28;20020;-62
2021/10/29 18:03:49;;;;;;;11.77;6.00;;;;;;;;;;5111491;28;20024;-62
2021/10/29 18:06:15;;;;;;;12.90;5.13;;;;;;;;;;5129907;27;20053;-59
2021/10/29 18:08:52;;;;;;;8.18;5.00;;;;;;;;;;5111352;28;20072;-62
2021/10/29 18:11:18;;;;;;;11.40;4.50;;;;;;;;;;5112499;28;20015;-63
2021/10/29 18:13:44;;;;;;;6.97;4.07;;;;;;;;;;5111547;28;20016;-64
2021/10/29 18:16:10;;;;;;;7.13;4.65;;;;;;;;;;5113201;27;20455;-63
2021/10/29 18:18:38;;;;;;;10.52;4.93;;;;;;;;;;5113664;27;20372;-63
2021/10/29 18:21:08;;;;;;;8.88;4.72;;;;;;;;;;5124901;27;20031;-63
2021/10/29 18:23:40;;;;;;;8.77;4.88;;;;;;;;;;5111978;28;20038;-63
2021/10/29 18:26:06;;;;;;;;;;;;;;;;;;5112434;28;20019;-63
2021/10/29 18:28:32;;;;;;;8.55;3.65;;;;;;;;;;5120708;28;19906;-64
2021/10/29 18:30:58;;;;;;;8.52;4.47;;;;;;;;;;5127250;28;20023;-63
2021/10/29 18:33:24;;;;;;;6.85;3.25;;;;;;;;;;5113177;28;20023;-63
2021/10/29 18:35:50;;;;;;;7.70;3.85;;;;;;;;;;5116965;28;20052;-63
2021/10/29 18:38:16;;;;;;;9.50;3.85;;;;;;;;;;5128894;28;20374;-63
2021/10/29 18:40:42;;;;;;;4.53;3.15;;;;;;;;;;5132003;28;20111;-63
2021/10/29 18:43:08;;;;;;;7.07;4.28;;;;;;;;;;5132752;28;20533;-63
2021/10/29 18:45:38;;;;;;;6.25;3.97;;;;;;;;;;5131829;28;20072;-63
2021/10/29 18:48:05;;;;;;;8.70;4.32;;;;;;;;;;5098795;28;20410;-63
2021/10/29 18:50:31;;;;;;;8.20;3.90;;;;;;;;;;5110900;28;20027;-63
2021/10/29 18:52:57;;;;;;;8.15;3.60;;;;;;;;;;5110810;28;20567;-63
2021/10/29 18:55:23;;;;;;;20.88;4.75;;;;;;;;;;5111563;28;20516;-63
2021/10/29 18:57:49;;;;;;;6.38;3.95;;;;;;;;;;5123517;28;20068;-63
2021/10/29 19:00:16;;;;;;;7.57;4.10;;;;;;;;;;5129033;28;20015;-63
2021/10/29 19:02:42;;;;;;;5.55;3.67;;;;;;;;;;5111124;28;20030;-64
2021/10/29 19:05:08;;;;;;;5.10;3.40;;;;;;;;;;5121875;28;20036;-64
2021/10/29 19:07:34;;;;;;;6.82;3.70;;;;;;;;;;5116501;28;20016;-64
2021/10/29 19:10:01;;;;;;;5.78;3.33;;;;;;;;;;5116667;28;20020;-64
2021/10/29 19:12:28;;;;;;;5.53;3.58;;;;;;;;;;5114613;28;20027;-64
2021/10/29 19:14:54;;;;;;;6.50;3.47;;;;;;;;;;5114901;28;20041;-63
2021/10/29 19:17:22;;;;;;;6.32;3.50;;;;;;;;;;5113614;28;20012;-64
2021/10/29 19:19:48;;;;;;;4.88;3.10;;;;;;;;;;5119706;27;20059;-63
2021/10/29 19:22:17;;;;;;;5.80;3.35;;;;;;;;;;5120798;27;20022;-63
2021/10/29 19:24:43;;;;;;;6.43;3.90;;;;;;;;;;5120132;27;20095;-63
2021/10/29 19:27:09;;;;;;;6.53;3.53;;;;;;;;;;5121577;27;20351;-65
2021/10/29 19:29:37;;;;;;;5.47;3.67;;;;;;;;;;5119156;27;20353;-63